Little Lever, United Kingdom
Current Conditions -  °F | °C
As of 8:20 PM on Thursday 18 Dec 2014 (Local Time) from EGCC Reporting Station
Broken Clouds Broken Clouds  
Wind Chill: 54°   Ceiling: 1900
Heat Index: 54°   Visibility: 6mi
Dew Point: 50°   Wind: 16mph
Humidity: 88%   Direction: 230°SW
Pressure: 29.62"   Gusts: NA
Location:  53.56°N, 2.37°W
Report Text: EGCC 182020Z 23014KT 9999 BKN019 BKN024 12/10 Q1003 TEMPO RA BKN010
Loading
Personal Weather Stations






























Interactive Weather Map New forecast layout! Learn more

10-Day Weather Forecast

Advertisements
Track Severe Weather on mobile